Spruce Creek, Pennsylvania
Current Conditions -  °F | °C
As of 12:15 AM on Sunday 26 Oct 2014 (Local Time) from KUNV Reporting Station
Clear Clear  
Wind Chill: 58°   Ceiling: Unl
Heat Index: 58°   Visibility: 10mi
Dew Point: 42°   Wind: 13mph
Humidity: 54%   Direction: 270°W
Pressure: 29.66"   Gusts: 18mph
Location:  40.61°N, 78.14°W
Report Text: KUNV 260415Z AUTO 27011G16KT 10SM CLR 15/06 A2966 RMK AO2 LTG DSNT NE T01460055
Loading
Personal Weather Stations






























Interactive Weather Map
Tropical Storm Tracking
New forecast layout! Learn more

10-Day Weather Forecast

Advertisements
Track Severe Weather on mobile